Terminal Aerodrome Forecast
Issued by NWS

Home | Current Version | Previous Version | Text Only | Print | Product List | Glossary On
Versions: 1 2 3 4 5 6 7 8 9 10 11 12 13
000
FTUS46 KSGX 301700
TAFTRM
TAF
KTRM 301720Z 3018/3118 VRB05KT P6SM VCSH OVC080
     FM301900 32005KT P6SM -SHRA BKN060 OVC080
     FM310800 VRB05KT P6SM VCSH BKN050=

USA.gov is the U.S. government's official web portal to all federal, state and local government web resources and services.